sensor_id;sensor_type;location;lat;lon;timestamp;pressure;altitude;pressure_sealevel;temperature;humidity
54248;BME280;40161;39.768;2.722;2023-07-24T00:00:46;100694.75;;;28.92;82.51
54248;BME280;40161;39.768;2.722;2023-07-24T00:03:12;100703.38;;;29.03;81.89
54248;BME280;40161;39.768;2.722;2023-07-24T00:05:37;100698.66;;;28.94;83.07
54248;BME280;40161;39.768;2.722;2023-07-24T00:08:03;100708.41;;;28.58;87.76
54248;BME280;40161;39.768;2.722;2023-07-24T00:10:29;100721.13;;;28.33;89.83
54248;BME280;40161;39.768;2.722;2023-07-24T00:12:54;100739.47;;;28.58;88.88
54248;BME280;40161;39.768;2.722;2023-07-24T00:15:20;100734.16;;;28.80;84.59
54248;BME280;40161;39.768;2.722;2023-07-24T00:17:46;100725.00;;;28.35;91.32
54248;BME280;40161;39.768;2.722;2023-07-24T00:20:12;100723.56;;;28.40;87.69
54248;BME280;40161;39.768;2.722;2023-07-24T00:22:37;100702.06;;;28.43;89.84
54248;BME280;40161;39.768;2.722;2023-07-24T00:25:03;100699.13;;;28.93;84.79
54248;BME280;40161;39.768;2.722;2023-07-24T00:27:30;100679.91;;;29.17;82.73
54248;BME280;40161;39.768;2.722;2023-07-24T00:29:56;100672.63;;;28.70;85.65
54248;BME280;40161;39.768;2.722;2023-07-24T00:32:22;100694.59;;;28.60;87.81
54248;BME280;40161;39.768;2.722;2023-07-24T00:34:48;100665.47;;;28.33;90.68
54248;BME280;40161;39.768;2.722;2023-07-24T00:37:13;100684.03;;;29.16;83.79
54248;BME280;40161;39.768;2.722;2023-07-24T00:39:39;100668.34;;;29.15;83.92
54248;BME280;40161;39.768;2.722;2023-07-24T00:42:05;100650.63;;;28.94;84.94
54248;BME280;40161;39.768;2.722;2023-07-24T00:44:30;100633.91;;;28.70;87.66
54248;BME280;40161;39.768;2.722;2023-07-24T00:46:56;100617.97;;;28.47;88.85
54248;BME280;40161;39.768;2.722;2023-07-24T00:49:22;100611.53;;;28.67;88.13
54248;BME280;40161;39.768;2.722;2023-07-24T00:51:48;100612.88;;;28.51;88.02
54248;BME280;40161;39.768;2.722;2023-07-24T00:54:16;100633.44;;;28.36;90.22
54248;BME280;40161;39.768;2.722;2023-07-24T00:56:43;100608.25;;;27.98;91.20
54248;BME280;40161;39.768;2.722;2023-07-24T00:59:09;100631.88;;;28.15;93.73
54248;BME280;40161;39.768;2.722;2023-07-24T01:01:35;100619.22;;;28.46;89.42
54248;BME280;40161;39.768;2.722;2023-07-24T01:04:02;100625.03;;;28.77;87.43
54248;BME280;40161;39.768;2.722;2023-07-24T01:06:29;100621.81;;;28.90;86.71
54248;BME280;40161;39.768;2.722;2023-07-24T01:08:55;100617.66;;;28.65;87.48
54248;BME280;40161;39.768;2.722;2023-07-24T01:11:23;100614.41;;;28.52;89.17
54248;BME280;40161;39.768;2.722;2023-07-24T01:13:58;100629.38;;;28.58;89.02
54248;BME280;40161;39.768;2.722;2023-07-24T01:16:35;100612.97;;;28.21;91.98
54248;BME280;40161;39.768;2.722;2023-07-24T01:19:04;100605.06;;;28.05;92.66
54248;BME280;40161;39.768;2.722;2023-07-24T01:22:01;100600.97;;;28.26;91.96
54248;BME280;40161;39.768;2.722;2023-07-24T01:27:24;100615.31;;;28.23;91.29
54248;BME280;40161;39.768;2.722;2023-07-24T01:29:50;100608.34;;;28.38;90.71
54248;BME280;40161;39.768;2.722;2023-07-24T01:32:16;100594.94;;;28.33;89.96
54248;BME280;40161;39.768;2.722;2023-07-24T01:34:42;100589.19;;;28.43;90.30
54248;BME280;40161;39.768;2.722;2023-07-24T01:37:09;100550.34;;;28.17;89.74
54248;BME280;40161;39.768;2.722;2023-07-24T01:39:37;100546.75;;;28.16;90.54
54248;BME280;40161;39.768;2.722;2023-07-24T01:42:04;100571.50;;;28.68;88.20
54248;BME280;40161;39.768;2.722;2023-07-24T01:44:30;100567.41;;;28.69;87.31
54248;BME280;40161;39.768;2.722;2023-07-24T01:46:56;100562.72;;;28.60;88.50
54248;BME280;40161;39.768;2.722;2023-07-24T01:49:21;100533.00;;;28.45;88.18
54248;BME280;40161;39.768;2.722;2023-07-24T01:51:47;100517.56;;;28.40;87.88
54248;BME280;40161;39.768;2.722;2023-07-24T01:54:12;100556.38;;;28.92;86.21
54248;BME280;40161;39.768;2.722;2023-07-24T01:56:39;100553.44;;;28.80;86.11
54248;BME280;40161;39.768;2.722;2023-07-24T01:59:05;100526.50;;;28.59;87.06
54248;BME280;40161;39.768;2.722;2023-07-24T02:01:31;100523.22;;;28.66;87.60
54248;BME280;40161;39.768;2.722;2023-07-24T02:03:57;100527.13;;;28.69;87.41
54248;BME280;40161;39.768;2.722;2023-07-24T02:06:23;100509.34;;;28.62;87.82
54248;BME280;40161;39.768;2.722;2023-07-24T02:08:49;100498.44;;;28.50;87.31
54248;BME280;40161;39.768;2.722;2023-07-24T02:11:16;100496.88;;;28.08;90.56
54248;BME280;40161;39.768;2.722;2023-07-24T02:13:46;100484.53;;;27.50;95.54
54248;BME280;40161;39.768;2.722;2023-07-24T02:16:12;100443.66;;;27.25;97.59
54248;BME280;40161;39.768;2.722;2023-07-24T02:18:38;100487.28;;;28.00;93.35
54248;BME280;40161;39.768;2.722;2023-07-24T02:21:04;100488.91;;;28.27;90.81
54248;BME280;40161;39.768;2.722;2023-07-24T02:23:29;100488.28;;;28.17;89.19
54248;BME280;40161;39.768;2.722;2023-07-24T02:25:55;100503.59;;;27.75;95.34
54248;BME280;40161;39.768;2.722;2023-07-24T02:28:20;100480.44;;;28.27;90.16
54248;BME280;40161;39.768;2.722;2023-07-24T02:30:47;100498.00;;;28.83;85.80
54248;BME280;40161;39.768;2.722;2023-07-24T02:33:13;100501.91;;;28.39;88.87
54248;BME280;40161;39.768;2.722;2023-07-24T02:35:39;100494.75;;;28.23;90.42
54248;BME280;40161;39.768;2.722;2023-07-24T02:38:05;100501.97;;;28.45;89.28
54248;BME280;40161;39.768;2.722;2023-07-24T02:40:31;100489.44;;;28.72;86.93
54248;BME280;40161;39.768;2.722;2023-07-24T02:42:57;100487.53;;;28.89;85.05
54248;BME280;40161;39.768;2.722;2023-07-24T02:45:22;100484.38;;;28.81;85.68
54248;BME280;40161;39.768;2.722;2023-07-24T02:47:48;100483.84;;;28.10;88.85
54248;BME280;40161;39.768;2.722;2023-07-24T02:50:13;100495.75;;;27.29;95.19
54248;BME280;40161;39.768;2.722;2023-07-24T02:52:39;100512.50;;;26.94;100.00
54248;BME280;40161;39.768;2.722;2023-07-24T02:55:05;100519.22;;;27.41;98.73
54248;BME280;40161;39.768;2.722;2023-07-24T02:57:30;100505.63;;;27.89;92.57
54248;BME280;40161;39.768;2.722;2023-07-24T02:59:57;100532.22;;;28.44;89.24
54248;BME280;40161;39.768;2.722;2023-07-24T03:02:23;100537.16;;;28.29;89.94
54248;BME280;40161;39.768;2.722;2023-07-24T03:04:48;100536.19;;;28.11;91.21
54248;BME280;40161;39.768;2.722;2023-07-24T03:07:14;100541.16;;;28.02;91.72
54248;BME280;40161;39.768;2.722;2023-07-24T03:09:39;100529.81;;;27.96;91.95
54248;BME280;40161;39.768;2.722;2023-07-24T03:12:05;100537.72;;;28.12;91.36
54248;BME280;40161;39.768;2.722;2023-07-24T03:14:31;100541.88;;;28.17;91.22
54248;BME280;40161;39.768;2.722;2023-07-24T03:16:56;100535.41;;;28.52;88.42
54248;BME280;40161;39.768;2.722;2023-07-24T03:19:22;100508.44;;;28.30;88.47
54248;BME280;40161;39.768;2.722;2023-07-24T03:21:47;100527.09;;;28.43;88.72
54248;BME280;40161;39.768;2.722;2023-07-24T03:24:13;100497.09;;;28.45;88.47
54248;BME280;40161;39.768;2.722;2023-07-24T03:26:38;100498.56;;;28.61;87.38
54248;BME280;40161;39.768;2.722;2023-07-24T03:29:05;100486.81;;;28.68;87.11
54248;BME280;40161;39.768;2.722;2023-07-24T03:31:30;100464.94;;;28.89;85.17
54248;BME280;40161;39.768;2.722;2023-07-24T03:33:56;100451.06;;;28.59;86.85
54248;BME280;40161;39.768;2.722;2023-07-24T03:36:21;100434.47;;;28.67;85.54
54248;BME280;40161;39.768;2.722;2023-07-24T03:38:47;100429.38;;;28.71;85.42
54248;BME280;40161;39.768;2.722;2023-07-24T03:41:12;100400.16;;;28.02;89.30
54248;BME280;40161;39.768;2.722;2023-07-24T03:43:38;100424.25;;;28.23;88.97
54248;BME280;40161;39.768;2.722;2023-07-24T03:46:03;100414.94;;;28.17;90.59
54248;BME280;40161;39.768;2.722;2023-07-24T03:48:29;100397.78;;;28.21;89.55
54248;BME280;40161;39.768;2.722;2023-07-24T03:50:59;100399.19;;;28.31;90.59
54248;BME280;40161;39.768;2.722;2023-07-24T03:53:28;100378.13;;;28.26;89.14
54248;BME280;40161;39.768;2.722;2023-07-24T03:55:53;100393.75;;;28.27;89.28
54248;BME280;40161;39.768;2.722;2023-07-24T03:58:19;100392.44;;;28.23;89.80
54248;BME280;40161;39.768;2.722;2023-07-24T04:00:45;100412.06;;;27.35;95.14
54248;BME280;40161;39.768;2.722;2023-07-24T04:03:11;100434.53;;;27.00;100.00
54248;BME280;40161;39.768;2.722;2023-07-24T04:05:37;100444.00;;;27.47;98.09
54248;BME280;40161;39.768;2.722;2023-07-24T04:08:03;100438.31;;;27.62;96.47
54248;BME280;40161;39.768;2.722;2023-07-24T04:10:29;100443.03;;;27.85;94.43
54248;BME280;40161;39.768;2.722;2023-07-24T04:12:56;100438.22;;;28.12;89.54
54248;BME280;40161;39.768;2.722;2023-07-24T04:15:22;100438.41;;;27.32;95.75
54248;BME280;40161;39.768;2.722;2023-07-24T04:17:48;100446.31;;;26.84;100.00
54248;BME280;40161;39.768;2.722;2023-07-24T04:20:13;100440.91;;;26.26;100.00
54248;BME280;40161;39.768;2.722;2023-07-24T04:22:39;100452.81;;;26.75;100.00
54248;BME280;40161;39.768;2.722;2023-07-24T04:25:05;100470.88;;;27.78;96.13
54248;BME280;40161;39.768;2.722;2023-07-24T04:27:30;100459.38;;;28.43;90.51
54248;BME280;40161;39.768;2.722;2023-07-24T04:29:56;100456.13;;;28.50;89.11
54248;BME280;40161;39.768;2.722;2023-07-24T04:32:22;100470.09;;;28.38;88.31
54248;BME280;40161;39.768;2.722;2023-07-24T04:34:47;100465.94;;;27.93;90.76
54248;BME280;40161;39.768;2.722;2023-07-24T04:37:13;100478.91;;;27.85;94.61
54248;BME280;40161;39.768;2.722;2023-07-24T04:39:39;100479.25;;;27.92;92.92
54248;BME280;40161;39.768;2.722;2023-07-24T04:42:04;100496.38;;;27.54;96.54
54248;BME280;40161;39.768;2.722;2023-07-24T04:44:30;100493.88;;;27.76;95.60
54248;BME280;40161;39.768;2.722;2023-07-24T04:46:57;100484.97;;;27.98;92.99
54248;BME280;40161;39.768;2.722;2023-07-24T04:49:23;100475.31;;;28.05;92.86
54248;BME280;40161;39.768;2.722;2023-07-24T04:51:50;100484.47;;;28.00;91.87
54248;BME280;40161;39.768;2.722;2023-07-24T04:54:17;100491.94;;;28.03;91.74
54248;BME280;40161;39.768;2.722;2023-07-24T04:56:42;100504.63;;;27.57;93.58
54248;BME280;40161;39.768;2.722;2023-07-24T04:59:08;100515.19;;;27.12;100.00
54248;BME280;40161;39.768;2.722;2023-07-24T05:01:33;100512.25;;;28.07;93.02
54248;BME280;40161;39.768;2.722;2023-07-24T05:03:59;100523.78;;;28.44;89.81
54248;BME280;40161;39.768;2.722;2023-07-24T05:06:24;100512.03;;;28.10;91.58
54248;BME280;40161;39.768;2.722;2023-07-24T05:08:52;100505.91;;;27.91;93.31
54248;BME280;40161;39.768;2.722;2023-07-24T05:11:18;100500.78;;;27.75;92.72
54248;BME280;40161;39.768;2.722;2023-07-24T05:13:44;100490.38;;;27.66;94.09
54248;BME280;40161;39.768;2.722;2023-07-24T05:16:09;100487.25;;;27.44;95.86
54248;BME280;40161;39.768;2.722;2023-07-24T05:18:35;100491.94;;;27.82;94.26
54248;BME280;40161;39.768;2.722;2023-07-24T05:21:00;100494.50;;;28.42;89.73
54248;BME280;40161;39.768;2.722;2023-07-24T05:23:26;100504.09;;;28.09;90.84
54248;BME280;40161;39.768;2.722;2023-07-24T05:25:58;100493.44;;;27.98;92.40
54248;BME280;40161;39.768;2.722;2023-07-24T05:28:26;100475.56;;;27.86;92.74
54248;BME280;40161;39.768;2.722;2023-07-24T05:30:52;100469.88;;;27.81;94.19
54248;BME280;40161;39.768;2.722;2023-07-24T05:33:18;100466.91;;;27.19;97.77
54248;BME280;40161;39.768;2.722;2023-07-24T05:35:43;100451.81;;;27.08;100.00
54248;BME280;40161;39.768;2.722;2023-07-24T05:38:09;100466.19;;;26.80;100.00
54248;BME280;40161;39.768;2.722;2023-07-24T05:40:35;100463.19;;;26.84;100.00
54248;BME280;40161;39.768;2.722;2023-07-24T05:43:00;100461.13;;;27.29;100.00
54248;BME280;40161;39.768;2.722;2023-07-24T05:45:26;100445.19;;;28.16;93.15
54248;BME280;40161;39.768;2.722;2023-07-24T05:47:52;100459.94;;;27.85;93.86
54248;BME280;40161;39.768;2.722;2023-07-24T05:50:18;100450.19;;;28.07;93.92
54248;BME280;40161;39.768;2.722;2023-07-24T05:52:44;100444.47;;;28.42;90.55
54248;BME280;40161;39.768;2.722;2023-07-24T05:55:09;100436.13;;;28.53;90.04
54248;BME280;40161;39.768;2.722;2023-07-24T05:57:36;100454.00;;;28.45;88.81
54248;BME280;40161;39.768;2.722;2023-07-24T06:00:03;100449.41;;;27.30;99.81
54248;BME280;40161;39.768;2.722;2023-07-24T06:02:28;100464.88;;;27.55;98.59
54248;BME280;40161;39.768;2.722;2023-07-24T06:04:54;100439.69;;;27.87;94.40
54248;BME280;40161;39.768;2.722;2023-07-24T06:07:19;100467.84;;;28.22;93.07
54248;BME280;40161;39.768;2.722;2023-07-24T06:09:45;100435.53;;;28.23;93.20
54248;BME280;40161;39.768;2.722;2023-07-24T06:12:10;100461.69;;;28.44;91.30
54248;BME280;40161;39.768;2.722;2023-07-24T06:14:36;100476.78;;;27.30;99.14
54248;BME280;40161;39.768;2.722;2023-07-24T06:17:01;100462.03;;;26.75;100.00
54248;BME280;40161;39.768;2.722;2023-07-24T06:19:27;100486.88;;;27.21;100.00
54248;BME280;40161;39.768;2.722;2023-07-24T06:21:52;100492.72;;;27.68;100.00
54248;BME280;40161;39.768;2.722;2023-07-24T06:24:18;100506.69;;;28.12;98.25
54248;BME280;40161;39.768;2.722;2023-07-24T06:26:43;100499.63;;;28.23;96.20
54248;BME280;40161;39.768;2.722;2023-07-24T06:29:09;100507.16;;;27.90;97.91
54248;BME280;40161;39.768;2.722;2023-07-24T06:31:34;100521.97;;;27.85;99.71
54248;BME280;40161;39.768;2.722;2023-07-24T06:34:00;100520.84;;;27.98;98.25
54248;BME280;40161;39.768;2.722;2023-07-24T06:36:26;100517.47;;;28.14;98.29
54248;BME280;40161;39.768;2.722;2023-07-24T06:38:51;100489.13;;;28.44;95.26
54248;BME280;40161;39.768;2.722;2023-07-24T06:41:17;100516.00;;;28.85;94.79
54248;BME280;40161;39.768;2.722;2023-07-24T06:43:45;100510.41;;;28.65;96.66
54248;BME280;40161;39.768;2.722;2023-07-24T06:46:11;100508.25;;;28.80;97.09
54248;BME280;40161;39.768;2.722;2023-07-24T06:48:36;100516.69;;;29.01;95.25
54248;BME280;40161;39.768;2.722;2023-07-24T06:51:02;100516.47;;;28.58;99.15
54248;BME280;40161;39.768;2.722;2023-07-24T06:53:27;100525.94;;;28.55;100.00
54248;BME280;40161;39.768;2.722;2023-07-24T06:55:53;100519.66;;;28.25;100.00
54248;BME280;40161;39.768;2.722;2023-07-24T06:58:18;100535.47;;;28.37;100.00
54248;BME280;40161;39.768;2.722;2023-07-24T07:00:44;100542.59;;;28.12;100.00
54248;BME280;40161;39.768;2.722;2023-07-24T07:03:09;100509.22;;;28.10;100.00
54248;BME280;40161;39.768;2.722;2023-07-24T07:05:35;100535.66;;;28.33;100.00
54248;BME280;40161;39.768;2.722;2023-07-24T07:08:00;100509.78;;;28.35;100.00
54248;BME280;40161;39.768;2.722;2023-07-24T07:10:26;100519.13;;;28.88;100.00
54248;BME280;40161;39.768;2.722;2023-07-24T07:12:52;100503.19;;;28.90;100.00
54248;BME280;40161;39.768;2.722;2023-07-24T07:15:17;100503.53;;;28.98;99.11
54248;BME280;40161;39.768;2.722;2023-07-24T07:17:42;100498.34;;;28.91;98.01
54248;BME280;40161;39.768;2.722;2023-07-24T07:20:08;100479.47;;;29.02;100.00
54248;BME280;40161;39.768;2.722;2023-07-24T07:22:34;100474.19;;;29.16;100.00
54248;BME280;40161;39.768;2.722;2023-07-24T07:24:59;100472.59;;;29.09;99.82
54248;BME280;40161;39.768;2.722;2023-07-24T07:27:25;100435.72;;;28.92;100.00
54248;BME280;40161;39.768;2.722;2023-07-24T07:29:50;100438.53;;;29.24;97.82
54248;BME280;40161;39.768;2.722;2023-07-24T07:32:16;100447.06;;;29.29;99.06
54248;BME280;40161;39.768;2.722;2023-07-24T07:34:41;100439.53;;;29.15;100.00
54248;BME280;40161;39.768;2.722;2023-07-24T07:37:07;100436.69;;;29.15;97.46
54248;BME280;40161;39.768;2.722;2023-07-24T07:39:32;100395.75;;;28.99;98.66
54248;BME280;40161;39.768;2.722;2023-07-24T07:41:58;100394.31;;;29.15;94.93
54248;BME280;40161;39.768;2.722;2023-07-24T07:44:24;100425.66;;;29.17;95.67
54248;BME280;40161;39.768;2.722;2023-07-24T07:46:50;100407.75;;;28.94;97.49
54248;BME280;40161;39.768;2.722;2023-07-24T07:49:15;100432.75;;;29.07;93.90
54248;BME280;40161;39.768;2.722;2023-07-24T07:51:41;100439.97;;;29.08;95.32
54248;BME280;40161;39.768;2.722;2023-07-24T07:54:06;100440.13;;;29.30;89.22
54248;BME280;40161;39.768;2.722;2023-07-24T07:56:32;100454.66;;;29.18;92.80
54248;BME280;40161;39.768;2.722;2023-07-24T07:58:57;100468.63;;;29.27;90.68
54248;BME280;40161;39.768;2.722;2023-07-24T08:01:23;100449.88;;;29.29;91.63
54248;BME280;40161;39.768;2.722;2023-07-24T08:03:48;100460.41;;;29.61;90.56
54248;BME280;40161;39.768;2.722;2023-07-24T08:06:14;100431.72;;;29.90;89.30
54248;BME280;40161;39.768;2.722;2023-07-24T08:08:39;100425.75;;;29.71;87.84
54248;BME280;40161;39.768;2.722;2023-07-24T08:11:05;100445.53;;;29.71;87.10
54248;BME280;40161;39.768;2.722;2023-07-24T08:13:32;100445.09;;;29.84;87.30
54248;BME280;40161;39.768;2.722;2023-07-24T08:15:58;100436.56;;;29.78;85.42
54248;BME280;40161;39.768;2.722;2023-07-24T08:18:25;100458.22;;;29.87;83.24
54248;BME280;40161;39.768;2.722;2023-07-24T08:20:51;100452.16;;;30.17;85.65
54248;BME280;40161;39.768;2.722;2023-07-24T08:23:16;100457.41;;;30.35;82.65
54248;BME280;40161;39.768;2.722;2023-07-24T08:25:54;100486.16;;;30.22;83.05
54248;BME280;40161;39.768;2.722;2023-07-24T08:28:20;100468.41;;;30.22;82.56
54248;BME280;40161;39.768;2.722;2023-07-24T08:30:50;100473.31;;;30.27;78.87
54248;BME280;40161;39.768;2.722;2023-07-24T08:33:20;100496.81;;;30.50;78.61
54248;BME280;40161;39.768;2.722;2023-07-24T08:35:46;100476.16;;;30.27;80.79
54248;BME280;40161;39.768;2.722;2023-07-24T08:38:11;100485.50;;;30.72;68.17
54248;BME280;40161;39.768;2.722;2023-07-24T08:40:37;100488.66;;;30.97;66.24
54248;BME280;40161;39.768;2.722;2023-07-24T08:43:04;100487.63;;;31.23;61.24
54248;BME280;40161;39.768;2.722;2023-07-24T08:45:30;100472.72;;;30.94;59.25
54248;BME280;40161;39.768;2.722;2023-07-24T08:47:57;100470.09;;;31.30;56.76
54248;BME280;40161;39.768;2.722;2023-07-24T08:50:25;100472.16;;;31.63;63.54
54248;BME280;40161;39.768;2.722;2023-07-24T08:52:51;100458.75;;;31.58;64.87
54248;BME280;40161;39.768;2.722;2023-07-24T08:55:16;100465.47;;;31.49;58.78
54248;BME280;40161;39.768;2.722;2023-07-24T08:57:42;100432.22;;;31.44;58.13
54248;BME280;40161;39.768;2.722;2023-07-24T09:00:08;100428.09;;;31.51;62.89
54248;BME280;40161;39.768;2.722;2023-07-24T09:02:35;100411.88;;;31.29;59.74
54248;BME280;40161;39.768;2.722;2023-07-24T09:05:01;100438.63;;;31.61;55.61
54248;BME280;40161;39.768;2.722;2023-07-24T09:07:29;100442.69;;;31.77;56.62
54248;BME280;40161;39.768;2.722;2023-07-24T09:09:55;100455.84;;;31.91;53.83
54248;BME280;40161;39.768;2.722;2023-07-24T09:12:22;100476.59;;;32.17;52.15
54248;BME280;40161;39.768;2.722;2023-07-24T09:14:48;100460.31;;;32.28;52.24
54248;BME280;40161;39.768;2.722;2023-07-24T09:17:14;100479.66;;;32.24;55.43
54248;BME280;40161;39.768;2.722;2023-07-24T09:19:39;100460.13;;;32.15;54.87
54248;BME280;40161;39.768;2.722;2023-07-24T09:22:12;100478.97;;;32.07;56.44
54248;BME280;40161;39.768;2.722;2023-07-24T09:24:52;100432.91;;;31.78;56.80
54248;BME280;40161;39.768;2.722;2023-07-24T09:27:18;100466.94;;;31.84;55.38
54248;BME280;40161;39.768;2.722;2023-07-24T09:29:45;100505.81;;;32.06;56.59
54248;BME280;40161;39.768;2.722;2023-07-24T09:32:27;100464.94;;;31.56;57.45
54248;BME280;40161;39.768;2.722;2023-07-24T09:34:53;100479.81;;;31.85;57.45
54248;BME280;40161;39.768;2.722;2023-07-24T09:37:30;100472.03;;;31.97;57.55
54248;BME280;40161;39.768;2.722;2023-07-24T09:39:56;100476.66;;;32.05;56.75
54248;BME280;40161;39.768;2.722;2023-07-24T09:42:29;100482.34;;;32.05;59.26
54248;BME280;40161;39.768;2.722;2023-07-24T09:44:55;100509.13;;;32.21;59.56
54248;BME280;40161;39.768;2.722;2023-07-24T09:47:21;100569.53;;;31.99;59.91
54248;BME280;40161;39.768;2.722;2023-07-24T09:49:47;100542.97;;;31.97;59.82
54248;BME280;40161;39.768;2.722;2023-07-24T09:52:14;100533.13;;;32.14;59.21
54248;BME280;40161;39.768;2.722;2023-07-24T09:57:30;100559.22;;;31.96;61.99
54248;BME280;40161;39.768;2.722;2023-07-24T09:59:58;100553.59;;;31.74;61.89
54248;BME280;40161;39.768;2.722;2023-07-24T10:02:24;100566.50;;;31.63;62.30
54248;BME280;40161;39.768;2.722;2023-07-24T10:04:50;100544.03;;;31.20;64.44
54248;BME280;40161;39.768;2.722;2023-07-24T10:07:15;100541.22;;;31.20;64.25
54248;BME280;40161;39.768;2.722;2023-07-24T10:09:44;100542.00;;;31.27;65.25
54248;BME280;40161;39.768;2.722;2023-07-24T10:12:11;100558.50;;;31.11;67.16
54248;BME280;40161;39.768;2.722;2023-07-24T10:14:37;100570.09;;;31.19;67.35
54248;BME280;40161;39.768;2.722;2023-07-24T10:17:03;100555.41;;;31.15;67.30
54248;BME280;40161;39.768;2.722;2023-07-24T10:19:41;100546.16;;;31.42;66.43
54248;BME280;40161;39.768;2.722;2023-07-24T10:22:19;100554.66;;;31.54;65.42
54248;BME280;40161;39.768;2.722;2023-07-24T10:24:46;100549.25;;;31.56;66.28
54248;BME280;40161;39.768;2.722;2023-07-24T10:27:12;100543.53;;;31.78;66.42
54248;BME280;40161;39.768;2.722;2023-07-24T10:29:37;100522.41;;;31.57;66.90
54248;BME280;40161;39.768;2.722;2023-07-24T10:32:16;100537.88;;;31.67;67.44
54248;BME280;40161;39.768;2.722;2023-07-24T10:34:42;100529.38;;;31.61;68.74
54248;BME280;40161;39.768;2.722;2023-07-24T10:37:08;100565.19;;;31.81;69.39
54248;BME280;40161;39.768;2.722;2023-07-24T10:39:40;100579.16;;;31.46;71.65
54248;BME280;40161;39.768;2.722;2023-07-24T10:42:10;100564.44;;;31.53;71.59
54248;BME280;40161;39.768;2.722;2023-07-24T10:44:37;100509.56;;;31.33;70.18
54248;BME280;40161;39.768;2.722;2023-07-24T10:47:03;100510.84;;;31.38;72.42
54248;BME280;40161;39.768;2.722;2023-07-24T10:49:29;100520.59;;;31.65;69.49
54248;BME280;40161;39.768;2.722;2023-07-24T10:51:58;100519.06;;;31.70;70.34
54248;BME280;40161;39.768;2.722;2023-07-24T10:54:24;100494.50;;;31.95;68.89
54248;BME280;40161;39.768;2.722;2023-07-24T10:56:49;100449.88;;;31.95;68.11
54248;BME280;40161;39.768;2.722;2023-07-24T10:59:15;100435.94;;;31.86;70.19
54248;BME280;40161;39.768;2.722;2023-07-24T11:01:41;100438.38;;;32.23;67.42
54248;BME280;40161;39.768;2.722;2023-07-24T11:04:07;100424.28;;;32.53;65.13
54248;BME280;40161;39.768;2.722;2023-07-24T11:06:33;100420.78;;;32.36;65.21
54248;BME280;40161;39.768;2.722;2023-07-24T11:09:00;100443.56;;;32.66;63.64
54248;BME280;40161;39.768;2.722;2023-07-24T11:11:33;100438.47;;;32.89;68.56
54248;BME280;40161;39.768;2.722;2023-07-24T11:14:00;100422.31;;;32.43;73.89
54248;BME280;40161;39.768;2.722;2023-07-24T11:16:26;100432.75;;;32.18;75.65
54248;BME280;40161;39.768;2.722;2023-07-24T11:18:52;100441.28;;;32.12;74.41
54248;BME280;40161;39.768;2.722;2023-07-24T11:21:18;100461.16;;;32.06;75.71
54248;BME280;40161;39.768;2.722;2023-07-24T11:23:55;100499.41;;;31.88;75.20
54248;BME280;40161;39.768;2.722;2023-07-24T11:26:22;100526.03;;;31.40;77.37
54248;BME280;40161;39.768;2.722;2023-07-24T11:28:49;100549.19;;;30.94;81.89
54248;BME280;40161;39.768;2.722;2023-07-24T11:31:15;100553.06;;;31.13;82.51
54248;BME280;40161;39.768;2.722;2023-07-24T11:33:41;100607.94;;;31.05;85.21
54248;BME280;40161;39.768;2.722;2023-07-24T11:36:07;100620.50;;;30.87;83.77
54248;BME280;40161;39.768;2.722;2023-07-24T11:38:33;100659.56;;;30.71;85.74
54248;BME280;40161;39.768;2.722;2023-07-24T11:41:00;100671.47;;;30.81;86.81
54248;BME280;40161;39.768;2.722;2023-07-24T11:43:26;100640.50;;;30.66;86.57
54248;BME280;40161;39.768;2.722;2023-07-24T11:45:53;100615.94;;;30.52;85.64
54248;BME280;40161;39.768;2.722;2023-07-24T11:48:22;100608.44;;;30.38;88.33
54248;BME280;40161;39.768;2.722;2023-07-24T11:50:53;100611.22;;;30.86;85.49
54248;BME280;40161;39.768;2.722;2023-07-24T11:53:28;100592.75;;;31.08;83.82
54248;BME280;40161;39.768;2.722;2023-07-24T11:55:58;100599.69;;;31.12;83.34
54248;BME280;40161;39.768;2.722;2023-07-24T11:58:28;100625.47;;;31.26;83.00
54248;BME280;40161;39.768;2.722;2023-07-24T12:00:55;100624.56;;;30.74;85.14
54248;BME280;40161;39.768;2.722;2023-07-24T12:03:26;100589.25;;;30.64;88.74
54248;BME280;40161;39.768;2.722;2023-07-24T12:05:52;100583.50;;;30.47;89.49
54248;BME280;40161;39.768;2.722;2023-07-24T12:08:30;100569.44;;;30.64;88.99
54248;BME280;40161;39.768;2.722;2023-07-24T12:10:56;100545.16;;;30.41;89.29
54248;BME280;40161;39.768;2.722;2023-07-24T12:13:21;100576.66;;;30.17;92.69
54248;BME280;40161;39.768;2.722;2023-07-24T12:15:48;100564.72;;;30.39;89.09
54248;BME280;40161;39.768;2.722;2023-07-24T12:18:14;100508.66;;;30.60;86.52
54248;BME280;40161;39.768;2.722;2023-07-24T12:20:40;100494.41;;;30.32;89.35
54248;BME280;40161;39.768;2.722;2023-07-24T12:23:05;100511.31;;;30.15;90.03
54248;BME280;40161;39.768;2.722;2023-07-24T12:25:31;100519.81;;;30.15;89.65
54248;BME280;40161;39.768;2.722;2023-07-24T12:27:57;100522.63;;;30.86;86.00
54248;BME280;40161;39.768;2.722;2023-07-24T12:30:22;100506.13;;;30.73;85.73
54248;BME280;40161;39.768;2.722;2023-07-24T12:32:48;100505.44;;;30.18;90.35
54248;BME280;40161;39.768;2.722;2023-07-24T12:35:15;100503.31;;;30.13;91.46
54248;BME280;40161;39.768;2.722;2023-07-24T12:37:41;100537.38;;;30.30;89.16
54248;BME280;40161;39.768;2.722;2023-07-24T12:40:08;100510.13;;;30.33;90.36
54248;BME280;40161;39.768;2.722;2023-07-24T12:42:34;100473.91;;;30.65;86.22
54248;BME280;40161;39.768;2.722;2023-07-24T12:45:00;100475.75;;;30.73;85.23
54248;BME280;40161;39.768;2.722;2023-07-24T12:47:28;100465.44;;;30.70;86.22
54248;BME280;40161;39.768;2.722;2023-07-24T12:49:53;100420.41;;;30.95;83.92
54248;BME280;40161;39.768;2.722;2023-07-24T12:52:21;100377.41;;;30.91;85.63